Time;durP1;ratioP1;P1;durP2;ratioP2;P2;SDS_P1;SDS_P2;PMS_P1;PMS_P2;Temp;Humidity;BMP_temperature;BMP_pressure;BME280_temperature;BME280_humidity;BME280_pressure;Samples;Min_cycle;Max_cycle;Signal;HPM_P1;HPM_P2
2023/04/02 00:04:22;;;;;;;21.90;12.70;;;22.30;65.90;;;;;;222102;1254;25601;-42
2023/04/02 00:09:35;;;;;;;17.90;12.40;;;22.30;65.30;;;;;;222428;1259;22505;-41
2023/04/02 00:14:45;;;;;;;15.10;11.00;;;22.30;65.40;;;;;;222356;1262;22600;-48
2023/04/02 00:19:55;;;;;;;18.20;11.80;;;22.30;65.00;;;;;;222377;1253;24255;-42
2023/04/02 00:25:06;;;;;;;18.20;11.70;;;22.30;64.70;;;;;;222445;1263;24298;-43
2023/04/02 00:30:15;;;;;;;17.20;11.00;;;22.30;64.50;;;;;;222422;1261;26663;-46
2023/04/02 00:35:25;;;;;;;18.10;11.40;;;22.20;64.50;;;;;;222396;1262;24224;-46
2023/04/02 00:40:30;;;;;;;16.70;11.40;;;22.20;64.50;;;;;;222542;1256;22526;-43
2023/04/02 00:45:37;;;;;;;16.00;11.40;;;22.20;64.90;;;;;;222364;1253;25385;-43
2023/04/02 00:50:43;;;;;;;14.60;10.30;;;22.20;64.50;;;;;;222129;1253;24225;-40
2023/04/02 00:55:47;;;;;;;14.60;10.80;;;22.10;64.40;;;;;;222321;1263;24426;-47
2023/04/02 01:00:52;;;;;;;13.90;10.90;;;22.10;64.40;;;;;;222222;1262;25493;-43
2023/04/02 01:06:02;;;;;;;12.90;10.60;;;22.00;64.50;;;;;;222247;1264;24230;-42
2023/04/02 01:11:52;;;;;;;12.60;9.50;;;22.10;64.40;;;;;;222098;1262;23605;-42
2023/04/02 01:17:25;;;;;;;11.60;9.20;;;22.00;64.50;;;;;;222242;1263;22504;-42
2023/04/02 01:22:46;;;;;;;12.80;9.90;;;22.00;64.30;;;;;;222388;1263;22747;-42
2023/04/02 01:28:08;;;;;;;13.40;9.80;;;22.00;63.90;;;;;;222306;1263;22647;-40
2023/04/02 01:33:12;;;;;;;13.20;9.70;;;22.00;64.60;;;;;;222245;1253;25319;-40
2023/04/02 01:38:26;;;;;;;13.40;9.50;;;22.00;64.40;;;;;;222514;1256;22548;-40
2023/04/02 01:43:30;;;;;;;12.40;9.30;;;22.00;64.40;;;;;;222462;1263;25460;-41
2023/04/02 01:48:34;;;;;;;11.20;8.90;;;21.90;64.30;;;;;;222580;1262;22519;-42
2023/04/02 01:53:39;;;;;;;10.90;8.60;;;21.90;64.30;;;;;;222396;1261;22592;-47
2023/04/02 01:58:45;;;;;;;11.40;8.30;;;21.90;64.80;;;;;;222615;1260;24043;-43
2023/04/02 02:03:50;;;;;;;10.80;9.40;;;21.90;64.40;;;;;;222407;1249;24161;-48
2023/04/02 02:09:02;;;;;;;13.40;8.70;;;21.80;64.50;;;;;;222945;1262;23681;-45
2023/04/02 02:14:27;;;;;;;10.80;8.60;;;21.80;64.40;;;;;;224264;1265;24371;-46
2023/04/02 02:19:38;;;;;;;10.30;8.10;;;21.80;64.00;;;;;;223148;1263;25493;-46
2023/04/02 02:24:43;;;;;;;10.30;8.30;;;21.80;64.00;;;;;;222438;1262;24254;-51
2023/04/02 02:29:53;;;;;;;10.90;8.10;;;21.70;64.00;;;;;;222155;1255;22941;-52
2023/04/02 02:35:10;;;;;;;9.40;7.80;;;21.70;64.50;;;;;;222255;1246;24861;-51
2023/04/02 02:40:20;;;;;;;10.90;7.40;;;21.70;63.90;;;;;;222337;1265;25333;-47
2023/04/02 02:45:30;;;;;;;8.70;7.30;;;21.90;64.20;;;;;;222239;1256;22534;-48
2023/04/02 02:50:36;;;;;;;8.10;6.40;;;22.30;63.00;;;;;;222299;1258;22534;-50
2023/04/02 02:55:41;;;;;;;9.50;6.50;;;22.50;63.10;;;;;;222111;1258;22662;-55
2023/04/02 03:00:53;;;;;;;6.90;5.90;;;22.70;61.70;;;;;;222477;1262;22500;-53
2023/04/02 03:06:05;;;;;;;7.00;5.90;;;22.80;61.70;;;;;;222624;1257;23916;-52
2023/04/02 03:11:13;;;;;;;6.10;5.50;;;22.90;61.50;;;;;;222063;1258;22562;-49
2023/04/02 03:16:25;;;;;;;6.50;5.60;;;22.90;61.40;;;;;;222281;1265;23405;-53
2023/04/02 03:21:55;;;;;;;8.70;5.50;;;22.90;60.90;;;;;;222436;1259;22547;-51
2023/04/02 03:27:19;;;;;;;6.30;5.10;;;23.00;61.20;;;;;;222608;1266;22594;-48
2023/04/02 03:32:27;;;;;;;6.20;5.20;;;23.00;60.90;;;;;;222197;1261;24185;-46
2023/04/02 03:37:46;;;;;;;5.00;4.50;;;23.10;60.50;;;;;;222232;1265;22507;-45
2023/04/02 03:43:03;;;;;;;6.10;5.10;;;23.20;60.20;;;;;;222491;1265;22506;-50
2023/04/02 03:48:33;;;;;;;6.00;5.30;;;23.20;60.30;;;;;;222455;1258;22970;-45
2023/04/02 03:53:38;;;;;;;5.40;4.80;;;23.30;59.90;;;;;;222288;1263;22494;-48
2023/04/02 03:58:54;;;;;;;5.20;4.60;;;23.30;59.80;;;;;;222474;1263;25607;-46
2023/04/02 04:04:09;;;;;;;5.60;5.00;;;23.30;59.80;;;;;;222411;1265;22514;-49
2023/04/02 04:09:32;;;;;;;5.40;4.90;;;23.20;60.30;;;;;;222383;1253;24241;-47
2023/04/02 04:14:40;;;;;;;5.10;4.60;;;23.10;60.10;;;;;;222362;1264;22515;-45
2023/04/02 04:19:58;;;;;;;5.80;4.70;;;23.00;60.60;;;;;;222422;1269;22522;-51
2023/04/02 04:25:06;;;;;;;5.00;4.40;;;22.80;60.70;;;;;;222383;1262;24187;-49
2023/04/02 04:30:33;;;;;;;5.10;4.60;;;22.80;60.80;;;;;;222451;1265;22623;-50
2023/04/02 04:35:48;;;;;;;5.60;4.60;;;22.80;61.10;;;;;;222455;1259;24351;-47
2023/04/02 04:41:03;;;;;;;7.00;4.60;;;22.70;60.80;;;;;;222395;1263;25348;-48
2023/04/02 04:46:57;;;;;;;4.30;3.90;;;22.70;61.10;;;;;;222246;1264;22522;-48
2023/04/02 04:52:31;;;;;;;6.00;4.50;;;22.70;61.00;;;;;;220313;1277;24186;-50
2023/04/02 04:57:39;;;;;;;5.00;4.60;;;22.60;60.90;;;;;;220505;1270;22723;-56
2023/04/02 05:03:00;;;;;;;5.00;4.50;;;22.50;61.00;;;;;;220434;1274;24234;-48
2023/04/02 05:08:21;;;;;;;4.70;4.30;;;22.50;61.10;;;;;;220649;1273;22543;-47
2023/04/02 05:14:02;;;;;;;4.90;4.10;;;22.40;61.50;;;;;;220443;1267;24204;-48
2023/04/02 05:19:11;;;;;;;;;;;22.40;61.20;;;;;;220141;1274;22511;-47
2023/04/02 05:24:41;;;;;;;4.50;4.10;;;22.40;61.60;;;;;;220087;1276;23042;-50
2023/04/02 05:29:52;;;;;;;4.30;4.00;;;22.30;61.20;;;;;;220899;1273;25397;-48
2023/04/02 05:34:57;;;;;;;4.90;4.40;;;22.30;61.40;;;;;;220966;1262;22517;-54
2023/04/02 05:40:23;;;;;;;4.00;3.50;;;22.20;61.30;;;;;;221059;1268;25320;-45
2023/04/02 05:45:35;;;;;;;4.60;4.20;;;22.20;61.40;;;;;;220989;1261;22528;-45
2023/04/02 05:50:46;;;;;;;5.40;4.20;;;22.10;61.70;;;;;;220946;1262;23049;-52
2023/04/02 05:56:01;;;;;;;5.00;3.80;;;22.10;61.50;;;;;;222159;1248;22504;-51
2023/04/02 06:01:16;;;;;;;4.00;3.60;;;22.10;61.50;;;;;;222147;1256;22572;-51
2023/04/02 06:06:42;;;;;;;3.80;3.50;;;22.00;61.90;;;;;;222407;1263;22542;-52
2023/04/02 06:12:14;;;;;;;4.20;3.70;;;21.90;62.00;;;;;;222345;1263;22522;-55
2023/04/02 06:17:20;;;;;;;4.30;3.70;;;21.70;61.90;;;;;;222384;1263;22667;-51
2023/04/02 06:22:38;;;;;;;4.10;3.40;;;21.70;61.40;;;;;;222244;1256;22514;-46
2023/04/02 06:27:46;;;;;;;3.50;3.20;;;21.60;61.30;;;;;;222235;1264;150410;-47
2023/04/02 06:32:55;;;;;;;3.40;3.20;;;21.70;60.70;;;;;;222231;1262;22665;-46
2023/04/02 06:38:02;;;;;;;3.90;3.20;;;21.90;60.00;;;;;;222387;1269;24042;-49
2023/04/02 06:43:32;;;;;;;3.10;2.90;;;22.20;59.40;;;;;;222487;1262;22531;-49
2023/04/02 06:48:55;;;;;;;3.80;3.10;;;22.40;58.80;;;;;;222367;1255;23590;-44
2023/04/02 06:53:59;;;;;;;3.30;3.00;;;22.50;58.20;;;;;;222565;1255;22515;-48
2023/04/02 06:59:06;;;;;;;3.70;3.00;;;22.60;57.80;;;;;;222373;1262;25212;-53
2023/04/02 07:04:11;;;;;;;3.40;3.10;;;22.70;57.60;;;;;;222502;1269;22626;-52
2023/04/02 07:09:19;;;;;;;3.70;2.90;;;22.80;57.50;;;;;;222381;1261;23145;-55
2023/04/02 07:14:26;;;;;;;3.00;2.40;;;22.80;57.30;;;;;;222808;1264;22709;-56
2023/04/02 07:19:31;;;;;;;3.40;3.10;;;22.90;57.20;;;;;;222198;1254;22522;-56
2023/04/02 07:24:36;;;;;;;5.70;2.80;;;22.90;56.70;;;;;;222479;1262;22514;-55
2023/04/02 07:29:43;;;;;;;3.00;2.60;;;23.00;56.90;;;;;;222368;1268;24369;-58
2023/04/02 07:34:47;;;;;;;4.20;2.60;;;23.10;56.40;;;;;;222452;1255;22508;-56
2023/04/02 07:39:51;;;;;;;2.80;2.20;;;23.10;56.20;;;;;;222468;1261;22522;-62
2023/04/02 07:44:56;;;;;;;5.20;2.50;;;23.20;56.00;;;;;;222416;1254;22595;-57
2023/04/02 07:50:00;;;;;;;6.10;2.30;;;23.20;55.90;;;;;;222598;1254;24206;-60
2023/04/02 07:55:05;;;;;;;2.80;2.20;;;23.30;55.50;;;;;;222235;1264;25278;-54
2023/04/02 08:00:11;;;;;;;5.80;2.40;;;23.30;55.60;;;;;;222451;1254;22527;-53
2023/04/02 08:05:15;;;;;;;4.60;2.60;;;23.40;55.60;;;;;;222465;1256;22582;-54
2023/04/02 08:10:19;;;;;;;7.00;2.60;;;23.50;55.60;;;;;;222343;1261;22789;-56
2023/04/02 08:15:23;;;;;;;3.80;2.50;;;23.40;54.80;;;;;;222290;1269;22509;-54
2023/04/02 08:20:28;;;;;;;5.60;2.30;;;23.40;55.60;;;;;;222492;1262;22794;-55
2023/04/02 08:25:32;;;;;;;12.50;2.70;;;23.30;55.50;;;;;;222524;1254;22597;-52
2023/04/02 08:30:37;;;;;;;4.60;2.50;;;23.20;55.80;;;;;;222202;1247;22531;-52
2023/04/02 08:35:45;;;;;;;3.20;1.90;;;23.30;55.60;;;;;;222429;1260;25279;-53
2023/04/02 08:40:58;;;;;;;4.30;2.30;;;23.20;55.60;;;;;;222144;1254;26538;-57
2023/04/02 08:46:21;;;;;;;5.70;2.30;;;23.20;55.60;;;;;;222218;1255;22522;-54
2023/04/02 08:51:30;;;;;;;3.40;2.40;;;23.10;55.70;;;;;;222342;1254;24213;-50
2023/04/02 08:56:48;;;;;;;23.00;2.70;;;23.00;55.80;;;;;;222199;1254;22532;-56
2023/04/02 09:02:15;;;;;;;8.00;2.30;;;23.00;56.60;;;;;;222369;1254;24244;-52
2023/04/02 09:07:19;;;;;;;9.20;2.00;;;22.90;56.30;;;;;;222450;1257;24344;-57
2023/04/02 09:12:28;;;;;;;2.30;1.80;;;22.80;56.60;;;;;;222301;1254;24212;-54
2023/04/02 09:17:32;;;;;;;3.90;1.90;;;22.70;57.00;;;;;;222233;1264;25400;-53
2023/04/02 09:22:55;;;;;;;4.40;2.20;;;22.60;57.20;;;;;;222414;1254;22612;-53
2023/04/02 09:28:01;;;;;;;3.00;1.80;;;22.70;57.10;;;;;;222218;1260;25345;-53
2023/04/02 09:33:06;;;;;;;7.00;1.80;;;22.70;57.00;;;;;;222284;1254;22516;-56
2023/04/02 09:38:16;;;;;;;5.90;2.00;;;22.60;56.80;;;;;;222616;1248;22505;-56
2023/04/02 09:43:24;;;;;;;10.50;2.10;;;22.60;57.00;;;;;;222490;1254;24100;-54
2023/04/02 09:48:31;;;;;;;11.20;2.70;;;22.60;57.10;;;;;;222446;1264;24256;-56
2023/04/02 09:53:44;;;;;;;5.30;2.30;;;22.60;57.60;;;;;;222686;1264;22638;-50
2023/04/02 09:59:15;;;;;;;9.80;2.20;;;22.60;57.30;;;;;;222459;1254;25391;-51
2023/04/02 10:04:38;;;;;;;8.00;1.80;;;22.50;58.50;;;;;;222633;1263;22521;-49
2023/04/02 10:09:42;;;;;;;9.20;2.40;;;22.40;59.30;;;;;;222594;1254;22512;-50
2023/04/02 10:14:48;;;;;;;3.30;2.10;;;22.50;59.30;;;;;;222359;1257;22592;-50
2023/04/02 10:19:59;;;;;;;5.10;1.90;;;22.40;58.60;;;;;;222647;1254;22517;-49
2023/04/02 10:25:16;;;;;;;10.30;2.20;;;22.40;58.80;;;;;;222622;1246;24216;-54
2023/04/02 10:30:29;;;;;;;3.70;1.80;;;22.30;58.50;;;;;;222818;1256;24085;-49
2023/04/02 10:36:01;;;;;;;6.00;2.20;;;22.20;58.50;;;;;;222760;1254;22511;-51
2023/04/02 10:41:17;;;;;;;3.80;1.90;;;22.20;58.40;;;;;;222221;1258;22550;-53
2023/04/02 10:46:31;;;;;;;2.80;1.60;;;22.20;58.40;;;;;;222399;1264;22662;-52
2023/04/02 10:51:54;;;;;;;4.20;2.10;;;22.20;58.30;;;;;;222653;1258;22811;-47
2023/04/02 10:57:33;;;;;;;4.70;1.90;;;22.10;58.50;;;;;;222476;1262;22748;-52
2023/04/02 11:37:30;;;;;;;74.70;31.50;;;22.00;58.80;;;;;;222303;1262;22606;-59
2023/04/02 12:09:03;;;;;;;39.40;21.60;;;21.90;58.40;;;;;;222332;1262;24108;-60
2023/04/02 12:14:37;;;;;;;36.50;18.80;;;21.90;57.90;;;;;;222217;1255;22514;-57
2023/04/02 12:20:09;;;;;;;27.60;16.40;;;21.90;58.30;;;;;;222098;1255;22727;-54
2023/04/02 12:26:08;;;;;;;23.00;13.90;;;22.10;57.40;;;;;;222976;1261;22543;-58
2023/04/02 12:31:32;;;;;;;30.80;14.70;;;22.50;56.50;;;;;;222353;1262;22613;-49
2023/04/02 12:37:08;;;;;;;29.10;14.60;;;22.80;56.10;;;;;;222323;1262;25173;-59
2023/04/02 12:42:34;;;;;;;28.80;13.80;;;22.90;55.60;;;;;;222434;1255;25477;-54
2023/04/02 12:47:53;;;;;;;22.10;12.40;;;22.80;55.90;;;;;;222329;1261;25260;-54
2023/04/02 12:53:21;;;;;;;23.70;12.30;;;22.90;56.10;;;;;;222459;1254;22525;-54
2023/04/02 12:58:42;;;;;;;26.50;12.00;;;23.00;56.20;;;;;;222534;1253;25258;-59
2023/04/02 13:04:20;;;;;;;20.20;11.20;;;23.10;55.70;;;;;;222536;1256;22507;-54
2023/04/02 13:09:50;;;;;;;23.80;11.70;;;23.20;55.40;;;;;;220929;1260;25673;-56
2023/04/02 13:15:02;;;;;;;20.90;11.90;;;23.30;55.40;;;;;;220982;1265;25326;-50
2023/04/02 13:20:39;;;;;;;20.70;10.70;;;23.30;55.20;;;;;;221618;1261;25381;-53
2023/04/02 13:25:47;;;;;;;20.40;10.60;;;23.30;55.30;;;;;;221053;1262;25442;-51
2023/04/02 13:30:56;;;;;;;20.10;10.50;;;23.10;55.60;;;;;;221010;1269;22518;-59
2023/04/02 13:36:03;;;;;;;16.20;10.30;;;23.00;55.70;;;;;;220988;1276;22515;-48
2023/04/02 13:41:19;;;;;;;17.60;10.20;;;22.80;55.80;;;;;;220904;1269;24367;-49
2023/04/02 13:46:30;;;;;;;19.30;10.10;;;22.90;55.90;;;;;;222103;1255;22949;-54
2023/04/02 13:51:46;;;;;;;16.70;9.90;;;22.90;55.90;;;;;;222098;1261;22737;-54
2023/04/02 13:57:01;;;;;;;15.70;9.80;;;22.80;55.80;;;;;;222232;1265;25281;-49
2023/04/02 14:02:23;;;;;;;14.90;10.00;;;22.80;55.60;;;;;;222342;1262;24233;-51
2023/04/02 14:07:50;;;;;;;15.90;9.30;;;22.70;55.80;;;;;;223646;1264;23878;-50
2023/04/02 14:13:33;;;;;;;14.40;9.20;;;22.80;55.70;;;;;;222228;1262;22554;-49
2023/04/02 14:18:55;;;;;;;16.10;9.20;;;22.70;56.20;;;;;;222049;1265;22517;-52
2023/04/02 14:24:42;;;;;;;13.00;8.10;;;22.60;55.80;;;;;;222422;1246;25524;-49
2023/04/02 14:30:00;;;;;;;16.60;7.70;;;22.50;56.00;;;;;;220425;1270;25291;-46
2023/04/02 14:35:25;;;;;;;15.10;8.40;;;22.60;56.30;;;;;;222199;1267;24213;-50
2023/04/02 14:41:07;;;;;;;11.80;8.20;;;22.50;56.40;;;;;;220817;1264;24375;-57
2023/04/02 14:46:13;;;;;;;16.10;7.70;;;22.50;55.90;;;;;;220721;1264;24348;-56
2023/04/02 14:51:36;;;;;;;12.40;7.90;;;22.30;56.20;;;;;;220829;1270;25347;-44
2023/04/02 14:56:54;;;;;;;11.60;7.60;;;22.30;56.30;;;;;;220814;1269;24202;-48
2023/04/02 15:02:08;;;;;;;13.60;7.60;;;22.30;56.30;;;;;;220827;1264;24383;-52
2023/04/02 15:07:19;;;;;;;11.40;6.90;;;22.30;56.30;;;;;;222325;1262;25192;-48
2023/04/02 15:12:34;;;;;;;17.80;7.70;;;22.20;56.40;;;;;;222525;1253;22525;-50
2023/04/02 15:17:38;;;;;;;16.70;7.90;;;22.10;56.90;;;;;;222236;1253;24358;-64
2023/04/02 15:23:12;;;;;;;12.00;7.20;;;21.90;56.60;;;;;;222480;1246;22977;-58
2023/04/02 15:28:26;;;;;;;13.00;7.60;;;21.90;56.60;;;;;;222254;1254;24399;-50
2023/04/02 15:33:36;;;;;;;16.40;7.80;;;22.00;56.40;;;;;;221755;1244;22503;-52
2023/04/02 15:39:14;;;;;;;10.30;7.40;;;21.90;56.50;;;;;;222224;1259;25157;-59
2023/04/02 15:44:42;;;;;;;18.10;8.40;;;22.00;56.30;;;;;;222299;1256;22520;-55
2023/04/02 15:50:05;;;;;;;18.40;7.20;;;22.00;56.60;;;;;;222017;1249;25654;-50
2023/04/02 15:55:34;;;;;;;12.30;6.90;;;22.00;56.50;;;;;;222515;1262;24226;-50
2023/04/02 16:00:50;;;;;;;11.50;6.80;;;22.00;56.10;;;;;;222313;1248;26619;-53
2023/04/02 16:06:22;;;;;;;11.90;6.80;;;22.10;56.70;;;;;;222343;1265;25278;-49
2023/04/02 16:11:28;;;;;;;10.40;6.70;;;22.50;56.40;;;;;;222350;1249;22513;-51
2023/04/02 16:16:36;;;;;;;13.40;7.40;;;22.60;55.40;;;;;;222065;1262;22977;-49
2023/04/02 16:22:10;;;;;;;15.30;7.80;;;22.70;54.60;;;;;;222449;1249;23111;-50
2023/04/02 16:27:56;;;;;;;14.70;7.60;;;22.80;54.40;;;;;;222201;1262;25345;-50
2023/04/02 16:33:19;;;;;;;15.80;7.90;;;23.00;54.20;;;;;;220711;1270;22643;-56
2023/04/02 16:39:22;;;;;;;15.10;7.10;;;23.00;54.80;;;;;;221073;1272;24274;-56
2023/04/02 16:44:37;;;;;;;13.20;7.50;;;23.00;54.20;;;;;;220034;1268;24212;-52
2023/04/02 16:49:57;;;;;;;11.90;6.30;;;23.10;54.20;;;;;;219999;1276;22729;-54
2023/04/02 16:55:26;;;;;;;18.30;8.60;;;23.10;54.20;;;;;;220247;1268;25479;-53
2023/04/02 17:01:02;;;;;;;14.80;6.40;;;23.10;54.40;;;;;;219749;1261;24407;-48
2023/04/02 17:06:33;;;;;;;10.30;6.20;;;23.20;54.70;;;;;;220072;1268;22566;-55
2023/04/02 17:11:43;;;;;;;12.10;6.80;;;23.10;54.10;;;;;;220532;1270;22648;-46
2023/04/02 17:17:01;;;;;;;12.80;6.20;;;23.00;54.40;;;;;;221208;1263;25388;-50
2023/04/02 17:22:23;;;;;;;6.60;5.60;;;23.00;54.70;;;;;;220752;1261;22513;-50
2023/04/02 17:27:49;;;;;;;17.50;5.60;;;23.00;54.30;;;;;;221208;1261;25572;-49
2023/04/02 17:32:57;;;;;;;17.00;6.40;;;22.90;54.50;;;;;;220891;1262;25348;-50
2023/04/02 17:38:25;;;;;;;13.70;6.00;;;22.90;55.00;;;;;;221397;1266;25489;-49
2023/04/02 17:43:59;;;;;;;14.00;5.30;;;22.80;54.50;;;;;;221029;1253;25468;-50
2023/04/02 17:49:16;;;;;;;11.50;5.70;;;22.70;54.60;;;;;;221076;1261;24336;-50
2023/04/02 17:54:43;;;;;;;12.50;5.80;;;22.60;54.50;;;;;;221395;1261;24483;-51
2023/04/02 17:59:54;;;;;;;11.00;6.10;;;22.60;55.00;;;;;;221235;1262;24215;-49
2023/04/02 18:05:40;;;;;;;41.00;20.90;;;22.50;54.80;;;;;;221497;1256;24271;-50
2023/04/02 18:11:08;;;;;;;31.50;17.80;;;22.40;55.20;;;;;;222266;1254;24333;-52
2023/04/02 18:16:42;;;;;;;26.80;15.10;;;22.40;55.10;;;;;;222194;1262;22636;-47
2023/04/02 18:22:43;;;;;;;27.20;14.70;;;22.30;55.10;;;;;;222384;1262;24470;-49
2023/04/02 18:28:11;;;;;;;26.00;13.60;;;22.30;55.30;;;;;;220384;1262;945092;-49
2023/04/02 18:34:00;;;;;;;22.20;13.00;;;22.20;55.00;;;;;;221160;1258;24186;-51
2023/04/02 18:39:35;;;;;;;21.90;13.30;;;22.20;55.10;;;;;;221150;1263;26501;-50
2023/04/02 18:45:42;;;;;;;25.20;11.40;;;22.10;55.00;;;;;;221227;1261;22532;-47
2023/04/02 18:50:59;;;;;;;18.30;11.10;;;22.10;55.40;;;;;;221077;1268;22532;-53
2023/04/02 18:56:21;;;;;;;22.40;11.10;;;22.10;55.30;;;;;;221114;1253;22523;-46
2023/04/02 19:01:38;;;;;;;14.40;9.40;;;22.10;55.30;;;;;;221130;1262;23027;-51
2023/04/02 19:07:02;;;;;;;21.50;10.00;;;22.10;55.00;;;;;;222217;1255;24177;-51
2023/04/02 19:12:19;;;;;;;24.20;9.30;;;22.00;54.80;;;;;;222291;1258;22657;-57
2023/04/02 19:17:31;;;;;;;15.10;8.80;;;22.00;55.20;;;;;;222144;1258;22537;-59
2023/04/02 19:23:04;;;;;;;16.40;8.70;;;21.90;56.70;;;;;;222422;1262;25459;-58
2023/04/02 19:28:31;;;;;;;14.50;7.90;;;21.90;56.30;;;;;;222490;1258;24199;-59
2023/04/02 19:34:00;;;;;;;18.40;8.20;;;22.00;56.10;;;;;;222420;1260;24167;-52
2023/04/02 19:39:24;;;;;;;12.50;7.40;;;21.90;57.00;;;;;;222426;1262;25262;-59
2023/04/02 19:44:30;;;;;;;19.40;7.60;;;22.10;56.50;;;;;;222374;1256;22525;-56
2023/04/02 19:49:40;;;;;;;18.10;7.10;;;22.10;56.60;;;;;;222079;1255;22511;-60
2023/04/02 19:54:47;;;;;;;17.20;7.20;;;21.90;56.10;;;;;;222477;1254;22511;-54
2023/04/02 19:59:58;;;;;;;17.50;7.40;;;21.80;56.50;;;;;;222425;1256;22588;-55
2023/04/02 20:05:05;;;;;;;15.70;6.70;;;21.80;56.20;;;;;;222359;1253;24228;-53
2023/04/02 20:10:14;;;;;;;11.50;6.80;;;21.70;56.60;;;;;;222499;1253;22531;-54
2023/04/02 20:15:20;;;;;;;12.30;5.80;;;21.70;57.00;;;;;;222263;1256;22601;-53
2023/04/02 20:20:29;;;;;;;17.80;6.90;;;21.70;57.20;;;;;;222424;1264;24268;-47
2023/04/02 20:25:35;;;;;;;22.00;7.50;;;21.70;57.00;;;;;;222408;1254;22526;-45
2023/04/02 20:30:42;;;;;;;13.80;6.40;;;21.60;56.90;;;;;;222343;1256;24233;-58
2023/04/02 20:35:50;;;;;;;14.10;6.20;;;21.70;56.90;;;;;;222397;1253;25380;-45
2023/04/02 20:40:55;;;;;;;20.20;6.70;;;22.00;56.50;;;;;;222203;1262;24312;-46
2023/04/02 20:46:05;;;;;;;25.60;8.00;;;22.20;55.70;;;;;;222507;1261;22520;-51
2023/04/02 20:51:14;;;;;;;26.00;9.00;;;22.20;56.80;;;;;;222463;1262;25314;-47
2023/04/02 20:56:21;;;;;;;21.30;8.00;;;22.00;60.50;;;;;;222385;1253;25191;-46
2023/04/02 21:01:28;;;;;;;24.70;7.70;;;22.00;61.10;;;;;;222362;1260;22523;-42
2023/04/02 21:06:36;;;;;;;23.70;7.30;;;22.00;60.50;;;;;;222266;1259;22504;-39
2023/04/02 21:11:40;;;;;;;18.80;6.00;;;22.20;59.40;;;;;;222354;1254;23067;-43
2023/04/02 21:16:46;;;;;;;17.40;6.50;;;22.50;58.20;;;;;;222293;1262;22527;-40
2023/04/02 21:21:53;;;;;;;18.00;7.70;;;22.70;57.50;;;;;;222349;1255;25530;-41
2023/04/02 21:26:59;;;;;;;14.90;5.80;;;22.90;59.60;;;;;;222287;1262;25393;-45
2023/04/02 21:32:08;;;;;;;12.70;6.80;;;23.10;59.10;;;;;;222200;1256;25410;-41
2023/04/02 21:37:29;;;;;;;17.00;6.80;;;23.10;60.50;;;;;;222412;1263;24388;-40
2023/04/02 21:42:37;;;;;;;18.80;8.60;;;23.10;61.10;;;;;;222116;1255;22513;-40
2023/04/02 21:47:46;;;;;;;14.80;5.50;;;23.00;61.70;;;;;;222403;1262;22604;-44
2023/04/02 21:52:54;;;;;;;16.80;6.60;;;22.80;61.90;;;;;;222446;1255;25512;-42
2023/04/02 21:58:04;;;;;;;14.40;7.20;;;22.80;61.60;;;;;;222436;1263;23007;-41
2023/04/02 22:03:09;;;;;;;12.30;6.00;;;22.60;61.80;;;;;;222429;1263;22500;-45
2023/04/02 22:08:28;;;;;;;14.90;6.00;;;22.50;62.10;;;;;;222491;1261;22518;-41
2023/04/02 22:13:34;;;;;;;16.00;5.60;;;22.30;62.30;;;;;;222355;1253;24453;-42
2023/04/02 22:18:43;;;;;;;11.20;5.60;;;22.30;61.70;;;;;;222519;1262;25422;-40
2023/04/02 22:23:51;;;;;;;10.90;5.80;;;22.20;61.80;;;;;;223232;1263;22514;-42
2023/04/02 22:28:58;;;;;;;14.00;5.50;;;22.10;61.70;;;;;;223488;1248;24428;-39
2023/04/02 22:34:04;;;;;;;9.40;5.10;;;22.00;61.60;;;;;;222520;1262;22525;-43
2023/04/02 22:39:11;;;;;;;9.80;5.50;;;22.00;61.90;;;;;;222581;1265;23887;-42
2023/04/02 22:44:16;;;;;;;9.10;4.50;;;22.00;61.80;;;;;;222653;1258;22717;-40
2023/04/02 22:49:21;;;;;;;10.50;4.80;;;21.90;62.00;;;;;;222359;1266;24320;-41
2023/04/02 22:54:25;;;;;;;11.40;5.60;;;21.90;61.80;;;;;;222695;1265;24194;-57
2023/04/02 22:59:29;;;;;;;8.80;5.20;;;22.00;61.40;;;;;;222462;1248;22659;-46
2023/04/02 23:04:33;;;;;;;11.90;4.50;;;21.90;61.00;;;;;;222249;1258;24209;-44
2023/04/02 23:09:37;;;;;;;10.60;4.80;;;21.90;60.70;;;;;;222443;1269;23489;-44
2023/04/02 23:14:41;;;;;;;9.70;5.10;;;21.90;60.70;;;;;;222383;1265;22594;-44
2023/04/02 23:19:46;;;;;;;9.50;4.70;;;21.90;60.70;;;;;;222088;1246;22603;-44
2023/04/02 23:24:53;;;;;;;10.00;4.50;;;21.90;60.10;;;;;;222244;1263;22516;-45
2023/04/02 23:29:57;;;;;;;9.70;4.20;;;21.90;59.80;;;;;;222372;1263;24324;-49
2023/04/02 23:35:01;;;;;;;9.60;4.50;;;21.90;59.80;;;;;;222317;1261;24309;-44
2023/04/02 23:40:07;;;;;;;8.30;4.50;;;21.90;59.80;;;;;;222274;1265;25326;-48
2023/04/02 23:45:11;;;;;;;7.40;4.10;;;21.90;59.70;;;;;;222242;1261;22536;-43
2023/04/02 23:50:15;;;;;;;6.40;4.10;;;21.80;59.80;;;;;;222503;1263;22514;-45
2023/04/02 23:55:19;;;;;;;9.60;4.20;;;21.80;59.70;;;;;;222318;1262;22510;-43
